createdAt,value
2022-08-17T00:06:49.244Z,380
2022-08-17T00:14:13.515Z,380
2022-08-17T00:22:29.560Z,384
2022-08-17T00:29:02.720Z,387
2022-08-17T00:42:31.508Z,378
2022-08-17T00:58:41.780Z,380
2022-08-17T01:07:14.073Z,380
2022-08-17T01:15:59.657Z,380
2022-08-17T01:23:24.406Z,383
2022-08-17T01:30:58.352Z,382
2022-08-17T01:38:13.965Z,383
2022-08-17T01:45:38.718Z,380
2022-08-17T02:00:28.329Z,380
2022-08-17T02:12:49.823Z,382
2022-08-17T02:22:42.693Z,381
2022-08-17T02:30:59.029Z,382
2022-08-17T02:44:57.054Z,381
2022-08-17T02:57:18.235Z,384
2022-08-17T03:07:11.275Z,386
2022-08-17T03:14:41.125Z,384
2022-08-17T03:34:22.205Z,381
2022-08-17T03:41:47.005Z,381
2022-08-17T03:49:28.063Z,375
2022-08-17T03:59:37.503Z,372
2022-08-17T04:14:27.056Z,377
2022-08-17T04:21:51.809Z,379
2022-08-17T04:29:16.630Z,376
2022-08-17T04:36:41.411Z,381
2022-08-17T04:44:06.177Z,382
2022-08-17T04:51:30.948Z,383
2022-08-17T05:06:20.518Z,382
2022-08-17T05:17:21.053Z,386
2022-08-17T05:35:59.619Z,381
2022-08-17T05:43:24.393Z,380
2022-08-17T05:50:49.179Z,382
2022-08-17T05:58:13.975Z,391
2022-08-17T06:05:38.710Z,392
2022-08-17T06:13:03.486Z,395
2022-08-17T06:25:24.786Z,401
2022-08-17T06:32:49.861Z,398
2022-08-17T06:40:14.432Z,402
2022-08-17T06:50:07.426Z,408
2022-08-17T07:24:43.081Z,417
2022-08-17T07:34:36.065Z,432
2022-08-17T08:10:19.237Z,397
2022-08-17T08:16:36.536Z,399
2022-08-17T09:15:54.777Z,394
2022-08-17T10:00:23.412Z,410
2022-08-17T10:10:16.529Z,403
2022-08-17T10:22:38.233Z,383
2022-08-17T10:30:02.545Z,375
2022-08-17T10:37:27.329Z,370
2022-08-17T10:44:52.105Z,378
2022-08-17T11:07:06.483Z,364
2022-08-17T11:14:31.216Z,368
2022-08-17T11:28:00.039Z,372
2022-08-17T11:44:26.716Z,380
2022-08-17T11:59:16.286Z,401
2022-08-17T12:17:42.727Z,404
2022-08-17T12:29:18.008Z,416
2022-08-17T12:36:36.551Z,410
2022-08-17T12:44:01.351Z,396
2022-08-17T12:58:50.893Z,423
2022-08-17T13:07:23.266Z,401
2022-08-17T13:21:05.354Z,409
2022-08-17T13:28:35.810Z,401
2022-08-17T13:36:11.169Z,380
2022-08-17T13:43:52.345Z,368
2022-08-17T13:53:45.379Z,368
2022-08-17T14:06:06.737Z,372
2022-08-17T14:22:03.846Z,392
2022-08-17T14:43:10.546Z,393
2022-08-17T14:50:36.036Z,400
2022-08-17T15:00:28.379Z,400
2022-08-17T15:11:28.979Z,401
2022-08-17T15:30:07.489Z,396
2022-08-17T15:36:11.563Z,395
2022-08-17T15:42:28.784Z,397
2022-08-17T15:57:18.346Z,397
2022-08-17T16:04:43.923Z,397
2022-08-17T16:14:36.191Z,402
2022-08-17T16:25:50.297Z,399
2022-08-17T16:34:22.219Z,397
2022-08-17T16:41:46.999Z,400
2022-08-17T16:49:11.786Z,401
2022-08-17T16:56:36.566Z,401
2022-08-17T17:04:01.332Z,408
2022-08-17T17:11:26.151Z,404
2022-08-17T17:21:19.217Z,407
2022-08-17T17:33:40.497Z,400
2022-08-17T17:39:44.711Z,408
2022-08-17T17:48:30.046Z,402
2022-08-17T17:55:54.814Z,404
2022-08-17T18:03:19.594Z,408
2022-08-17T18:10:44.440Z,406
2022-08-17T18:18:09.152Z,399
2022-08-17T18:25:33.937Z,401
2022-08-17T18:35:26.981Z,402
2022-08-17T18:50:16.777Z,405
2022-08-17T19:10:02.603Z,404
2022-08-17T19:17:27.397Z,409
2022-08-17T19:32:16.957Z,411
2022-08-17T19:39:41.792Z,406
2022-08-17T20:11:49.128Z,404
2022-08-17T20:24:10.370Z,404
2022-08-17T20:31:35.147Z,409
2022-08-17T20:38:59.935Z,404
2022-08-17T20:53:49.486Z,399
2022-08-17T21:18:32.756Z,402
2022-08-17T21:26:13.943Z,397
2022-08-17T21:31:26.170Z,407
2022-08-17T21:39:07.319Z,404
2022-08-17T21:47:56.013Z,397
2022-08-17T21:54:13.318Z,399
2022-08-17T22:11:31.094Z,398
2022-08-17T22:18:55.901Z,397
2022-08-17T22:31:17.148Z,399
2022-08-17T22:37:21.176Z,398
2022-08-17T22:55:59.783Z,395
2022-08-17T23:02:03.775Z,398
2022-08-17T23:08:21.272Z,396
2022-08-17T23:26:46.388Z,399
2022-08-17T23:38:00.165Z,406
2022-08-17T23:47:53.191Z,404
2022-08-17T23:55:18.018Z,402
